Time;durP1;ratioP1;P1;durP2;ratioP2;P2;SDS_P1;SDS_P2;PMS_P1;PMS_P2;Temp;Humidity;BMP_temperature;BMP_pressure;BME280_temperature;BME280_humidity;BME280_pressure;Samples;Min_cycle;Max_cycle;Signal;HPM_P1;HPM_P2
2023/12/26 00:00:26;;;;;;;16.20;7.47;;;;;;;-144.73;100.00;54674.53;5027186;28;20033;-76
2023/12/26 00:02:51;;;;;;;21.02;7.88;;;;;;;-144.73;100.00;54690.97;5010605;28;20034;-76
2023/12/26 00:05:17;;;;;;;19.13;6.85;;;;;;;-144.73;100.00;54707.38;5010746;28;20044;-77
2023/12/26 00:07:42;;;;;;;17.77;7.82;;;;;;;-144.73;100.00;54707.38;5023006;28;20041;-77
2023/12/26 00:10:07;;;;;;;12.35;6.10;;;;;;;-144.73;100.00;54713.53;5046766;28;20037;-77
2023/12/26 00:12:33;;;;;;;16.95;6.45;;;;;;;-144.73;100.00;54740.22;5029399;28;20111;-77
2023/12/26 00:14:58;;;;;;;13.88;7.40;;;;;;;-144.73;100.00;54717.66;5045996;28;20025;-77
2023/12/26 00:17:24;;;;;;;14.98;7.30;;;;;;;-144.73;100.00;54703.28;5045899;28;20037;-76
2023/12/26 00:19:49;;;;;;;17.38;6.40;;;;;;;-144.73;100.00;54688.91;5046048;28;20029;-77
2023/12/26 00:22:15;;;;;;;13.90;6.80;;;;;;;-144.73;100.00;54654.00;5045674;28;20040;-77
2023/12/26 00:24:41;;;;;;;20.15;6.07;;;;;;;-144.73;100.00;54695.06;5029553;28;20049;-76
2023/12/26 00:27:06;;;;;;;19.27;6.25;;;;;;;-144.73;100.00;54684.78;5032857;28;20037;-76
2023/12/26 00:29:31;;;;;;;10.80;5.63;;;;;;;-144.73;100.00;54707.38;5047257;28;20025;-77
2023/12/26 00:31:57;;;;;;;16.95;5.63;;;;;;;-144.73;100.00;54740.22;5032988;28;20068;-76
2023/12/26 00:34:22;;;;;;;17.27;5.15;;;;;;;-144.73;100.00;54723.81;5033727;28;20534;-76
2023/12/26 00:36:47;;;;;;;10.18;4.03;;;;;;;-144.73;100.00;54719.69;5049229;28;20044;-76
2023/12/26 00:39:14;;;;;;;9.68;3.85;;;;;;;-144.73;100.00;54711.47;5048608;28;20036;-76
2023/12/26 00:41:42;;;;;;;16.60;3.72;;;;;;;-144.73;100.00;54686.84;5033468;28;20156;-76
2023/12/26 00:44:07;;;;;;;11.07;3.42;;;;;;;-144.73;100.00;54727.91;5031188;28;20040;-76
2023/12/26 00:46:33;;;;;;;8.07;3.58;;;;;;;-144.73;100.00;54711.47;5032623;28;20033;-76
2023/12/26 00:48:59;;;;;;;14.10;2.40;;;;;;;-144.73;100.00;54701.22;5029589;28;20035;-77
2023/12/26 00:51:25;;;;;;;9.88;2.75;;;;;;;-144.73;100.00;54703.28;5046649;28;20129;-77
2023/12/26 00:53:50;;;;;;;7.80;2.20;;;;;;;-144.73;100.00;54707.38;5031487;28;20032;-79
2023/12/26 00:56:15;;;;;;;6.35;1.95;;;;;;;-144.73;100.00;54688.91;5034938;28;20033;-77
2023/12/26 00:58:41;;;;;;;10.80;2.08;;;;;;;-144.73;100.00;54674.53;5046165;28;20021;-78
2023/12/26 01:01:06;;;;;;;8.43;2.17;;;;;;;-144.73;100.00;54723.81;5033341;28;20088;-77
2023/12/26 01:03:31;;;;;;;7.45;2.08;;;;;;;-144.73;100.00;54711.47;5047435;28;20025;-78
2023/12/26 01:05:57;;;;;;;6.15;2.53;;;;;;;-144.73;100.00;54711.47;5050658;28;20042;-78
2023/12/26 01:08:22;;;;;;;5.68;1.80;;;;;;;-144.73;100.00;54742.28;5032692;28;20041;-77
2023/12/26 01:10:50;;;;;;;7.15;1.60;;;;;;;-144.73;100.00;54703.28;5033522;28;20025;-77
2023/12/26 01:13:19;;;;;;;5.63;1.60;;;;;;;-144.73;100.00;54740.22;5050018;28;20065;-78
2023/12/26 01:15:44;;;;;;;11.98;2.08;;;;;;;-144.73;100.00;54715.59;5033439;28;20087;-77
2023/12/26 01:18:10;;;;;;;6.35;1.35;;;;;;;-144.73;100.00;54693.00;5038068;28;20033;-77
2023/12/26 01:20:35;;;;;;;7.88;1.88;;;;;;;-144.73;100.00;54736.13;5043187;28;20028;-78
2023/12/26 01:23:02;;;;;;;10.05;1.95;;;;;;;-144.73;100.00;54690.97;5032353;28;20029;-77
2023/12/26 01:25:30;;;;;;;5.47;1.67;;;;;;;-144.73;100.00;54715.59;5050273;28;20033;-78
2023/12/26 01:27:55;;;;;;;11.75;2.53;;;;;;;-144.73;100.00;54711.47;5018228;28;20108;-78
2023/12/26 01:30:21;;;;;;;7.50;2.20;;;;;;;-144.73;100.00;54686.84;5013656;28;20049;-78
2023/12/26 01:32:47;;;;;;;10.10;2.03;;;;;;;-144.73;100.00;54719.69;5014767;28;20050;-74
2023/12/26 01:35:12;;;;;;;6.72;2.47;;;;;;;-144.73;100.00;54690.97;5029131;28;20038;-74
2023/12/26 01:37:38;;;;;;;6.35;1.95;;;;;;;-144.73;100.00;54715.59;5015841;28;20056;-74
2023/12/26 01:40:06;;;;;;;7.13;2.17;;;;;;;-144.73;100.00;54705.31;5037778;28;20028;-74
2023/12/26 01:42:32;;;;;;;8.13;2.17;;;;;;;-144.73;100.00;54723.81;5026827;28;20029;-74
2023/12/26 01:45:00;;;;;;;8.88;2.00;;;;;;;-144.73;100.00;54752.53;5029046;28;20028;-74
2023/12/26 01:47:26;;;;;;;5.28;1.95;;;;;;;-144.73;100.00;54732.00;5023534;28;20456;-74
2023/12/26 01:49:52;;;;;;;6.85;2.30;;;;;;;-144.73;100.00;54707.38;5020834;28;20021;-74
2023/12/26 01:52:20;;;;;;;7.38;2.05;;;;;;;-144.73;100.00;54707.38;5036743;28;20053;-74
2023/12/26 01:54:46;;;;;;;4.00;2.65;;;;;;;-144.73;100.00;54713.53;5018988;28;20029;-74
2023/12/26 01:57:11;;;;;;;9.90;2.45;;;;;;;-144.73;100.00;54695.06;5033603;28;20030;-74
2023/12/26 01:59:42;;;;;;;3.95;2.25;;;;;;;-144.73;100.00;54707.38;5021129;28;20093;-74
2023/12/26 02:02:08;;;;;;;5.97;2.70;;;;;;;-144.73;100.00;54662.22;5038860;28;20022;-74
2023/12/26 02:04:33;;;;;;;7.88;3.28;;;;;;;-144.73;100.00;54719.69;5037355;28;20033;-74
2023/12/26 02:06:59;;;;;;;7.85;3.60;;;;;;;-144.73;100.00;54756.66;5016784;28;20037;-75
2023/12/26 02:09:25;;;;;;;9.65;4.43;;;;;;;-144.73;100.00;54682.75;5011859;28;20032;-74
2023/12/26 02:11:52;;;;;;;7.18;4.40;;;;;;;-144.73;100.00;54703.28;5016173;28;20095;-74
2023/12/26 02:14:18;;;;;;;10.30;4.30;;;;;;;-144.73;100.00;54670.44;5013141;28;20061;-74
2023/12/26 02:16:47;;;;;;;8.07;4.32;;;;;;;-144.73;100.00;54723.81;5011535;28;20030;-74
2023/12/26 02:19:15;;;;;;;9.90;4.13;;;;;;;-144.73;100.00;54695.06;5027917;28;20079;-74
2023/12/26 02:21:40;;;;;;;9.93;4.03;;;;;;;-144.73;100.00;54703.28;5011070;28;20488;-74
2023/12/26 02:24:05;;;;;;;5.68;3.95;;;;;;;-144.73;100.00;54715.59;5012823;28;20057;-74
2023/12/26 02:26:35;;;;;;;5.40;3.17;;;;;;;-144.73;100.00;54736.13;5011271;28;20087;-73
2023/12/26 02:29:02;;;;;;;5.15;3.38;;;;;;;-144.73;100.00;54715.59;5022811;28;20021;-73
2023/12/26 02:31:28;;;;;;;5.10;2.55;;;;;;;-144.73;100.00;54699.16;5014131;28;20025;-73
2023/12/26 02:33:54;;;;;;;4.65;2.80;;;;;;;-144.73;100.00;54699.16;5011525;28;20029;-73
2023/12/26 02:36:20;;;;;;;4.03;2.63;;;;;;;-144.73;100.00;54703.28;5015692;28;20026;-73
2023/12/26 02:38:46;;;;;;;4.03;2.15;;;;;;;-144.73;100.00;54707.38;5041819;28;20022;-73
2023/12/26 02:41:11;;;;;;;8.57;2.28;;;;;;;-144.73;100.00;54719.69;5045492;28;20025;-73
2023/12/26 02:43:36;;;;;;;5.55;1.38;;;;;;;-144.73;100.00;54682.75;5047020;28;20112;-73
2023/12/26 02:46:02;;;;;;;6.00;1.90;;;;;;;-144.73;100.00;54715.59;5031775;28;20113;-74
2023/12/26 02:48:27;;;;;;;3.35;1.23;;;;;;;-144.73;100.00;54771.00;5027134;28;20049;-74
2023/12/26 02:50:55;;;;;;;6.70;1.70;;;;;;;-144.73;100.00;54740.22;5012203;28;20021;-73
2023/12/26 02:53:20;;;;;;;3.55;1.55;;;;;;;-144.73;100.00;54690.97;5011042;28;20120;-74
2023/12/26 02:55:49;;;;;;;13.73;1.80;;;;;;;-144.73;100.00;54732.00;5027892;28;20113;-74
2023/12/26 02:58:14;;;;;;;6.65;1.60;;;;;;;-144.73;100.00;54699.16;5011505;28;20030;-74
2023/12/26 03:00:39;;;;;;;3.65;1.60;;;;;;;-144.73;100.00;54752.53;5027881;28;20076;-73
2023/12/26 03:03:06;;;;;;;4.80;1.52;;;;;;;-144.73;100.00;54707.38;5041418;28;20049;-74
2023/12/26 03:05:31;;;;;;;4.57;1.73;;;;;;;-144.73;100.00;54715.59;5036947;28;20114;-74
2023/12/26 03:07:57;;;;;;;2.35;1.52;;;;;;;-144.73;100.00;54699.16;5045793;28;20060;-74
2023/12/26 03:10:22;;;;;;;5.80;1.50;;;;;;;-144.73;100.00;54707.38;5041948;28;20030;-74
2023/12/26 03:12:47;;;;;;;5.95;1.27;;;;;;;-144.73;100.00;54707.38;5045745;28;20403;-74
2023/12/26 03:15:13;;;;;;;6.68;1.90;;;;;;;-144.73;100.00;54703.28;5046502;28;20033;-73
2023/12/26 03:17:38;;;;;;;2.20;1.10;;;;;;;-144.73;100.00;54736.13;5020472;28;20041;-74
2023/12/26 03:20:04;;;;;;;4.90;1.45;;;;;;;-144.73;100.00;54752.53;5010504;28;20026;-74
2023/12/26 03:22:30;;;;;;;4.82;1.27;;;;;;;-144.73;100.00;54744.31;5026971;28;20028;-73
2023/12/26 03:24:55;;;;;;;3.13;1.25;;;;;;;-144.73;100.00;54695.06;5010655;28;20034;-74
2023/12/26 03:27:21;;;;;;;3.17;1.17;;;;;;;-144.73;100.00;54705.31;5018792;28;20526;-74
2023/12/26 03:29:47;;;;;;;3.08;0.98;;;;;;;-144.73;100.00;54727.91;5038824;28;20025;-74
2023/12/26 03:32:13;;;;;;;6.55;1.90;;;;;;;-144.73;100.00;54699.16;5045882;28;20040;-74
2023/12/26 03:34:39;;;;;;;3.28;0.90;;;;;;;-144.73;100.00;54721.75;5041150;28;20108;-74
2023/12/26 03:37:04;;;;;;;6.72;1.73;;;;;;;-144.73;100.00;54727.91;5046095;28;20044;-74
2023/12/26 03:39:30;;;;;;;2.67;1.23;;;;;;;-144.73;100.00;54723.81;5027079;28;20033;-73
2023/12/26 03:41:56;;;;;;;2.97;1.02;;;;;;;-144.73;100.00;54715.59;5045691;28;20085;-74
2023/12/26 03:44:21;;;;;;;3.42;1.25;;;;;;;-144.73;100.00;54703.28;5045841;28;20026;-74
2023/12/26 03:46:46;;;;;;;2.58;0.95;;;;;;;-144.73;100.00;54633.47;5045968;28;20056;-73
2023/12/26 03:49:12;;;;;;;2.83;1.10;;;;;;;-144.73;100.00;54723.81;5045942;28;20052;-73
2023/12/26 03:51:37;;;;;;;4.63;1.10;;;;;;;-144.73;100.00;54711.47;5045190;28;20065;-73
2023/12/26 03:54:03;;;;;;;6.63;1.30;;;;;;;-144.73;100.00;54736.13;5030924;28;20025;-73
2023/12/26 03:56:35;;;;;;;7.25;1.52;;;;;;;-144.73;100.00;54732.00;5029136;28;20088;-73
2023/12/26 03:59:00;;;;;;;6.00;1.50;;;;;;;-144.73;100.00;54699.16;5033586;28;20021;-72
2023/12/26 04:01:26;;;;;;;4.18;0.90;;;;;;;-144.73;100.00;54748.44;5047202;28;20044;-72
2023/12/26 04:03:53;;;;;;;4.90;1.15;;;;;;;-144.73;100.00;54703.28;5049966;28;20021;-72
2023/12/26 04:06:19;;;;;;;3.72;1.23;;;;;;;-144.73;100.00;54740.22;5049579;28;20116;-72
2023/12/26 04:08:45;;;;;;;3.88;0.93;;;;;;;-144.73;100.00;54723.81;5049655;28;20377;-72
2023/12/26 04:11:10;;;;;;;3.83;1.00;;;;;;;-144.73;100.00;54715.59;5049475;28;20028;-72
2023/12/26 04:13:37;;;;;;;6.25;1.60;;;;;;;-144.73;100.00;54707.38;5047616;28;20029;-72
2023/12/26 04:16:02;;;;;;;6.00;1.17;;;;;;;-144.73;100.00;54715.59;5050285;28;20557;-72
2023/12/26 04:18:28;;;;;;;3.72;1.20;;;;;;;-144.73;100.00;54699.16;5030224;28;20037;-72
2023/12/26 04:20:54;;;;;;;4.90;1.08;;;;;;;-144.73;100.00;54711.47;5049816;28;20044;-72
2023/12/26 04:23:19;;;;;;;3.45;0.93;;;;;;;-144.73;100.00;54713.53;5049066;28;20025;-73
2023/12/26 04:25:44;;;;;;;6.80;1.85;;;;;;;-144.73;100.00;54649.91;5049438;28;20025;-72
2023/12/26 04:28:10;;;;;;;3.03;1.00;;;;;;;-144.73;100.00;54695.06;5016005;28;20044;-72
2023/12/26 04:30:36;;;;;;;9.18;1.35;;;;;;;-144.73;100.00;54715.59;5028539;28;20025;-73
2023/12/26 04:33:06;;;;;;;7.60;1.27;;;;;;;-144.73;100.00;54719.69;5029943;28;20053;-73
2023/12/26 04:35:32;;;;;;;15.25;1.90;;;;;;;-144.73;100.00;54690.97;5013835;28;20416;-73
2023/12/26 04:38:00;;;;;;;8.77;1.90;;;;;;;-144.73;100.00;54707.38;5026671;28;20100;-72
2023/12/26 04:40:26;;;;;;;7.53;1.38;;;;;;;-144.73;100.00;54715.59;5045872;28;20017;-72
2023/12/26 04:42:51;;;;;;;9.02;1.48;;;;;;;-144.73;100.00;54707.38;5047395;28;20088;-72
2023/12/26 04:45:17;;;;;;;10.13;1.58;;;;;;;-144.73;100.00;54715.59;5030793;28;20021;-72
2023/12/26 04:47:42;;;;;;;7.75;1.77;;;;;;;-144.73;100.00;54744.31;5028647;28;20069;-72
2023/12/26 04:50:08;;;;;;;9.27;1.80;;;;;;;-144.73;100.00;54727.91;5049423;28;20502;-72
2023/12/26 04:52:33;;;;;;;11.57;2.53;;;;;;;-144.73;100.00;54715.59;5031987;28;20385;-72
2023/12/26 04:54:58;;;;;;;13.57;1.85;;;;;;;-144.73;100.00;54707.38;5049666;28;20021;-73
2023/12/26 04:57:24;;;;;;;12.75;1.88;;;;;;;-144.73;100.00;54715.59;5032493;28;20040;-72
2023/12/26 04:59:49;;;;;;;12.00;2.60;;;;;;;-144.73;100.00;54723.81;5027714;28;20064;-72
2023/12/26 05:02:14;;;;;;;18.30;2.35;;;;;;;-144.73;100.00;54756.66;5022395;28;20453;-73
2023/12/26 05:04:40;;;;;;;13.65;2.65;;;;;;;-144.73;100.00;54703.28;5048318;28;20496;-73
2023/12/26 05:07:07;;;;;;;21.65;2.72;;;;;;;-144.73;100.00;54703.28;5028564;28;20036;-73
2023/12/26 05:09:32;;;;;;;15.13;2.22;;;;;;;-144.73;100.00;54707.38;5047612;28;20064;-73
2023/12/26 05:11:58;;;;;;;18.17;3.70;;;;;;;-144.73;100.00;54711.47;5042754;28;20050;-72
2023/12/26 05:14:23;;;;;;;37.47;3.53;;;;;;;-144.73;100.00;54682.75;5044647;28;20072;-73
2023/12/26 05:16:50;;;;;;;20.10;3.63;;;;;;;-144.73;100.00;54690.97;5028505;28;20033;-73
2023/12/26 05:19:16;;;;;;;24.23;4.38;;;;;;;-144.73;100.00;54703.28;5032022;28;20033;-72
2023/12/26 05:21:42;;;;;;;27.80;3.97;;;;;;;-144.73;100.00;54715.59;5044474;28;20022;-73
2023/12/26 05:24:07;;;;;;;26.98;4.32;;;;;;;-144.73;100.00;54705.31;5032472;28;20021;-73
2023/12/26 05:26:42;;;;;;;27.80;4.05;;;;;;;-144.73;100.00;54686.84;5046263;28;20033;-73
2023/12/26 05:29:08;;;;;;;28.20;4.30;;;;;;;-144.73;100.00;54699.16;5021423;28;20030;-73
2023/12/26 05:31:34;;;;;;;33.50;4.70;;;;;;;-144.73;100.00;54727.91;5028497;28;20029;-73
2023/12/26 05:34:02;;;;;;;24.95;4.22;;;;;;;-144.73;100.00;54703.28;5037504;28;20040;-73
2023/12/26 05:36:28;;;;;;;26.77;5.07;;;;;;;-144.73;100.00;54713.53;5028095;28;20037;-73
2023/12/26 05:38:57;;;;;;;30.70;3.95;;;;;;;-144.73;100.00;54719.69;5037435;28;20025;-73
2023/12/26 05:41:25;;;;;;;;;;;;;;;-144.73;100.00;54699.16;5023725;28;20109;-73
2023/12/26 05:43:51;;;;;;;29.33;5.28;;;;;;;-144.73;100.00;54686.84;5019994;28;19926;-73
2023/12/26 05:46:18;;;;;;;28.25;3.65;;;;;;;-144.73;100.00;54695.06;5026166;28;20029;-73
2023/12/26 05:48:44;;;;;;;40.83;4.97;;;;;;;-144.73;100.00;54684.78;5031040;28;20457;-73
2023/12/26 05:51:09;;;;;;;32.42;4.85;;;;;;;-144.73;100.00;54678.63;5048470;28;20076;-73
2023/12/26 05:53:35;;;;;;;28.00;3.45;;;;;;;-144.73;100.00;54703.28;5032420;28;20516;-73
2023/12/26 05:56:00;;;;;;;31.38;4.43;;;;;;;-144.73;100.00;54690.97;5049256;28;20036;-73
2023/12/26 05:58:25;;;;;;;26.50;4.47;;;;;;;-144.73;100.00;54690.97;5048734;28;20045;-73
2023/12/26 06:00:52;;;;;;;32.72;4.35;;;;;;;-144.73;100.00;54701.22;5046903;28;20025;-73
2023/12/26 06:03:19;;;;;;;43.05;4.45;;;;;;;-144.73;100.00;54686.84;5012170;28;20114;-73
2023/12/26 06:05:48;;;;;;;24.20;4.28;;;;;;;-144.73;100.00;54695.06;5012500;28;20021;-73
2023/12/26 06:08:14;;;;;;;24.13;4.03;;;;;;;-144.73;100.00;54690.97;5025801;28;20060;-73
2023/12/26 06:10:39;;;;;;;33.50;5.55;;;;;;;-144.73;100.00;54707.38;5033585;28;20488;-72
2023/12/26 06:13:04;;;;;;;28.88;4.45;;;;;;;-144.73;100.00;54719.69;5048169;28;20032;-74
2023/12/26 06:15:33;;;;;;;26.77;3.50;;;;;;;-144.73;100.00;54752.53;5032384;28;20067;-73
2023/12/26 06:17:59;;;;;;;30.30;5.75;;;;;;;-144.73;100.00;54688.91;5031314;28;20052;-74
2023/12/26 06:20:26;;;;;;;31.77;4.30;;;;;;;-144.73;100.00;54732.00;5033300;28;20029;-73
2023/12/26 06:22:52;;;;;;;37.17;4.25;;;;;;;-144.73;100.00;54695.06;5020560;28;20026;-74
2023/12/26 06:25:17;;;;;;;30.88;4.45;;;;;;;-144.73;100.00;54670.44;5018642;28;20036;-73
2023/12/26 06:27:42;;;;;;;21.23;4.07;;;;;;;-144.73;100.00;54719.69;5047783;28;20042;-74
2023/12/26 06:30:10;;;;;;;33.80;4.60;;;;;;;-144.73;100.00;54744.31;5048587;28;20108;-74
2023/12/26 06:32:35;;;;;;;25.20;4.38;;;;;;;-144.73;100.00;54670.44;5048121;28;20037;-74
2023/12/26 06:35:04;;;;;;;32.03;5.65;;;;;;;-144.73;100.00;54715.59;5031577;28;20025;-74
2023/12/26 06:37:29;;;;;;;23.80;4.00;;;;;;;-144.73;100.00;54678.63;5047573;28;20060;-74
2023/12/26 06:39:54;;;;;;;29.52;5.65;;;;;;;-144.73;100.00;54711.47;5029465;28;20030;-73
2023/12/26 06:42:20;;;;;;;30.63;4.43;;;;;;;-144.73;100.00;54693.00;5045460;28;20096;-74
2023/12/26 06:44:45;;;;;;;25.67;4.25;;;;;;;-144.73;100.00;54703.28;5046509;28;20053;-74
2023/12/26 06:47:12;;;;;;;32.65;4.28;;;;;;;-144.73;100.00;54699.16;5041016;28;20063;-74
2023/12/26 06:49:37;;;;;;;32.95;5.38;;;;;;;-144.73;100.00;54719.69;5012971;28;20029;-74
2023/12/26 06:52:03;;;;;;;26.95;4.38;;;;;;;-144.73;100.00;54695.06;5011187;28;20034;-74
2023/12/26 06:54:32;;;;;;;28.17;3.65;;;;;;;-144.73;100.00;54727.91;5012983;28;20025;-74
2023/12/26 06:57:06;;;;;;;45.97;4.95;;;;;;;-144.73;100.00;54686.84;4991643;28;20038;-74
2023/12/26 06:59:32;;;;;;;42.55;4.88;;;;;;;-144.73;100.00;54670.44;4992369;28;20032;-74
2023/12/26 07:01:57;;;;;;;33.80;4.63;;;;;;;-144.73;100.00;54678.63;5024137;28;20116;-74
2023/12/26 07:04:32;;;;;;;37.42;5.25;;;;;;;-144.73;100.00;54715.59;5036048;28;20022;-74
2023/12/26 07:06:57;;;;;;;39.15;5.40;;;;;;;-144.73;100.00;54727.91;5045391;28;20029;-74
2023/12/26 07:09:23;;;;;;;36.45;4.38;;;;;;;-144.73;100.00;54703.28;5025979;28;20029;-74
2023/12/26 07:11:51;;;;;;;35.70;5.93;;;;;;;-144.73;100.00;54703.28;5042098;28;20045;-74
2023/12/26 07:14:17;;;;;;;32.67;4.72;;;;;;;-144.73;100.00;54736.13;5039203;28;20021;-74
2023/12/26 07:16:42;;;;;;;46.38;5.32;;;;;;;-144.73;100.00;54719.69;5028501;28;20037;-74
2023/12/26 07:19:08;;;;;;;34.65;4.80;;;;;;;-144.73;100.00;54682.75;5047716;28;20049;-74
2023/12/26 07:21:33;;;;;;;34.97;5.68;;;;;;;-144.73;100.00;54732.00;5047183;28;20029;-73
2023/12/26 07:23:58;;;;;;;32.60;6.40;;;;;;;-144.73;100.00;54703.28;5047743;28;20434;-73
2023/12/26 07:26:24;;;;;;;31.80;5.03;;;;;;;-144.73;100.00;54723.81;5031271;28;20067;-73
2023/12/26 07:28:49;;;;;;;39.03;6.07;;;;;;;-144.73;100.00;54703.28;5022300;28;20053;-75
2023/12/26 07:31:20;;;;;;;38.40;5.13;;;;;;;-144.73;100.00;54715.59;5026634;28;20049;-73
2023/12/26 07:33:46;;;;;;;36.83;5.18;;;;;;;-144.73;100.00;54662.22;5006039;28;20026;-76
2023/12/26 07:36:12;;;;;;;28.98;5.03;;;;;;;-144.73;100.00;54723.81;5009384;28;20069;-75
2023/12/26 07:38:37;;;;;;;31.65;5.25;;;;;;;-144.73;100.00;54682.75;5019145;28;20053;-73
2023/12/26 07:41:03;;;;;;;28.75;3.95;;;;;;;-144.73;100.00;54715.59;5035872;28;20021;-75
2023/12/26 07:43:29;;;;;;;24.95;4.07;;;;;;;-144.73;100.00;54717.66;5016753;28;20113;-72
2023/12/26 07:45:55;;;;;;;28.15;3.92;;;;;;;-144.73;100.00;54680.69;5023778;28;20033;-73
2023/12/26 07:48:21;;;;;;;40.60;5.13;;;;;;;-144.73;100.00;54672.47;5037964;28;20519;-74
2023/12/26 07:50:46;;;;;;;35.50;4.53;;;;;;;-144.73;100.00;54727.91;5027376;28;20063;-73
2023/12/26 07:53:12;;;;;;;36.10;4.35;;;;;;;-144.73;100.00;54699.16;5028612;28;20048;-72
2023/12/26 07:55:37;;;;;;;36.92;5.03;;;;;;;-144.73;100.00;54686.84;5030976;28;20021;-72
2023/12/26 07:58:02;;;;;;;31.95;4.22;;;;;;;-144.73;100.00;54690.97;5030931;28;20446;-75
2023/12/26 08:00:28;;;;;;;27.13;4.40;;;;;;;-144.73;100.00;54707.38;5011425;28;20037;-73
2023/12/26 08:02:53;;;;;;;38.95;6.28;;;;;;;-144.73;100.00;54740.22;5011189;28;20053;-73
2023/12/26 08:05:19;;;;;;;37.63;6.25;;;;;;;-144.73;100.00;54711.47;5027822;28;20034;-75
2023/12/26 08:07:44;;;;;;;36.75;5.18;;;;;;;-144.73;100.00;54699.16;5022614;28;20037;-73
2023/12/26 08:10:12;;;;;;;52.88;4.75;;;;;;;-144.73;100.00;54719.69;5022897;28;20029;-73
2023/12/26 08:12:37;;;;;;;28.08;4.63;;;;;;;-144.73;100.00;54699.16;5030560;28;20030;-76
2023/12/26 08:15:03;;;;;;;32.65;6.03;;;;;;;-144.73;100.00;54725.84;5043524;28;20030;-76
2023/12/26 08:17:28;;;;;;;35.88;5.65;;;;;;;-144.73;100.00;54670.44;5027606;28;20052;-76
2023/12/26 08:19:54;;;;;;;40.05;5.57;;;;;;;-144.73;100.00;54645.78;5010661;28;20586;-74
2023/12/26 08:22:19;;;;;;;34.47;5.53;;;;;;;-144.73;100.00;54744.31;5026284;28;20404;-76
2023/12/26 08:24:44;;;;;;;37.92;5.07;;;;;;;-144.73;100.00;54674.53;5010618;28;20124;-73
2023/12/26 08:27:10;;;;;;;35.60;6.03;;;;;;;-144.73;100.00;54678.63;5015385;28;20045;-73
2023/12/26 08:29:35;;;;;;;28.67;5.43;;;;;;;-144.73;100.00;54732.00;5037062;28;20032;-73
2023/12/26 08:32:00;;;;;;;30.50;6.03;;;;;;;-144.73;100.00;54670.44;5035140;28;20034;-74
2023/12/26 08:34:26;;;;;;;32.78;4.88;;;;;;;-144.73;100.00;54654.00;5032924;28;20018;-74
2023/12/26 08:36:51;;;;;;;40.50;5.97;;;;;;;-144.73;100.00;54682.75;5019133;28;20030;-74
2023/12/26 08:39:17;;;;;;;39.95;5.82;;;;;;;-144.73;100.00;54670.44;5014294;28;20062;-74
2023/12/26 08:41:43;;;;;;;38.85;5.47;;;;;;;-144.73;100.00;54670.44;5028688;28;20096;-74
2023/12/26 08:44:09;;;;;;;45.90;6.53;;;;;;;-144.73;100.00;54723.81;5018986;28;20026;-74
2023/12/26 08:46:34;;;;;;;45.55;5.63;;;;;;;-144.73;100.00;54723.81;5024366;28;20030;-74
2023/12/26 08:48:59;;;;;;;34.55;5.50;;;;;;;-144.73;100.00;54717.66;5029059;28;20034;-74
2023/12/26 08:51:25;;;;;;;37.70;5.70;;;;;;;-144.73;100.00;54690.97;5040716;28;20026;-74
2023/12/26 08:53:50;;;;;;;29.33;4.63;;;;;;;-144.73;100.00;54690.97;5036793;28;20041;-72
2023/12/26 08:56:16;;;;;;;32.42;5.55;;;;;;;-144.73;100.00;54690.97;5044796;28;20037;-73
2023/12/26 08:58:41;;;;;;;36.22;4.80;;;;;;;-144.73;100.00;54695.06;5021851;28;20037;-73
2023/12/26 09:01:09;;;;;;;43.70;6.80;;;;;;;-144.73;100.00;54719.69;5025749;28;20037;-72
2023/12/26 09:03:35;;;;;;;44.80;6.30;;;;;;;-144.73;100.00;54703.28;5024440;28;20399;-72
2023/12/26 09:06:00;;;;;;;40.55;5.45;;;;;;;-144.73;100.00;54658.13;5024908;28;20030;-72
2023/12/26 09:08:26;;;;;;;38.30;5.50;;;;;;;-144.73;100.00;54723.81;5025402;28;20037;-72
2023/12/26 09:10:51;;;;;;;29.77;4.57;;;;;;;-144.73;100.00;54686.84;5022224;28;20021;-72
2023/12/26 09:13:20;;;;;;;45.70;5.63;;;;;;;-144.73;100.00;54711.47;5040516;28;20046;-75
2023/12/26 09:15:47;;;;;;;39.97;6.57;;;;;;;-144.73;100.00;54703.28;5039447;28;20029;-75
2023/12/26 09:18:12;;;;;;;45.97;6.55;;;;;;;-144.73;100.00;54695.06;5023526;28;20121;-72
2023/12/26 09:20:38;;;;;;;29.42;4.55;;;;;;;-144.73;100.00;54703.28;5039494;28;20116;-75
2023/12/26 09:23:03;;;;;;;35.97;5.53;;;;;;;-144.73;100.00;54682.75;5020811;28;20114;-74
2023/12/26 09:25:29;;;;;;;42.03;5.43;;;;;;;-144.73;100.00;54695.06;5025976;28;20075;-75
2023/12/26 09:27:54;;;;;;;31.75;4.82;;;;;;;-144.73;100.00;54736.13;5022805;28;20045;-75
2023/12/26 09:30:19;;;;;;;32.70;4.55;;;;;;;-144.73;100.00;54707.38;5024651;28;20052;-75
2023/12/26 09:32:45;;;;;;;34.22;5.15;;;;;;;-144.73;100.00;54715.59;5038430;28;20038;-75
2023/12/26 09:35:10;;;;;;;38.90;5.65;;;;;;;-144.73;100.00;54670.44;5023798;28;20033;-75
2023/12/26 09:37:38;;;;;;;37.95;5.28;;;;;;;-144.73;100.00;54701.22;5024604;28;20037;-74
2023/12/26 09:40:08;;;;;;;32.15;5.63;;;;;;;-144.73;100.00;54703.28;5025080;28;20100;-75
2023/12/26 09:42:33;;;;;;;40.90;6.50;;;;;;;-144.73;100.00;54697.13;5022912;28;20025;-72
2023/12/26 09:44:59;;;;;;;33.40;5.55;;;;;;;-144.73;100.00;54705.31;5025231;28;20025;-72
2023/12/26 09:47:26;;;;;;;42.42;5.75;;;;;;;-144.73;100.00;54678.63;5024138;28;20117;-73
2023/12/26 09:49:53;;;;;;;31.92;5.18;;;;;;;-144.73;100.00;54707.38;5023296;28;20032;-73
2023/12/26 09:52:21;;;;;;;37.42;6.32;;;;;;;-144.73;100.00;54690.97;5028805;28;20038;-73
2023/12/26 09:54:48;;;;;;;38.88;4.60;;;;;;;-144.73;100.00;54715.59;5036226;28;20030;-72
2023/12/26 09:57:14;;;;;;;45.15;6.88;;;;;;;-144.73;100.00;54695.06;5017274;28;20103;-73
2023/12/26 09:59:40;;;;;;;27.40;4.88;;;;;;;-144.73;100.00;54690.97;5023933;28;20025;-72
2023/12/26 10:02:11;;;;;;;35.92;4.50;;;;;;;-144.73;100.00;54693.00;5023595;28;20037;-72
2023/12/26 10:04:37;;;;;;;36.95;4.78;;;;;;;-144.73;100.00;54711.47;5027648;28;20017;-72
2023/12/26 10:07:03;;;;;;;34.33;5.97;;;;;;;-144.73;100.00;54719.69;5030537;28;20036;-72
2023/12/26 10:09:28;;;;;;;39.33;4.72;;;;;;;-144.73;100.00;54711.47;5043660;28;20028;-72
2023/12/26 10:11:53;;;;;;;24.23;4.47;;;;;;;-144.73;100.00;54699.16;5014546;28;20025;-74
2023/12/26 10:20:20;;;;;;;33.63;5.53;;;;;;;-144.73;100.00;54707.38;5003454;28;20115;-73
2023/12/26 10:22:46;;;;;;;21.92;3.38;;;;;;;-144.73;100.00;54711.47;5007251;28;20038;-73
2023/12/26 10:25:13;;;;;;;27.95;4.35;;;;;;;-144.73;100.00;54678.63;5008964;28;20073;-73
2023/12/26 10:27:39;;;;;;;33.15;5.10;;;;;;;-144.73;100.00;54654.00;5005152;28;20386;-72
2023/12/26 10:30:06;;;;;;;28.30;5.13;;;;;;;-144.73;100.00;54699.16;5000171;28;20108;-73
2023/12/26 10:32:31;;;;;;;31.17;4.15;;;;;;;-144.73;100.00;54695.06;5030866;28;20483;-73
2023/12/26 10:35:12;;;;;;;25.63;4.85;;;;;;;-144.73;100.00;54686.84;5028804;28;20180;-73
2023/12/26 10:37:37;;;;;;;31.45;4.72;;;;;;;-144.73;100.00;54658.13;5046092;28;20117;-73
2023/12/26 10:40:04;;;;;;;29.10;4.57;;;;;;;-144.73;100.00;54725.84;5020112;28;20108;-73
2023/12/26 10:42:40;;;;;;;32.05;4.72;;;;;;;-144.73;100.00;54715.59;5032844;23;20052;-73
2023/12/26 10:45:12;;;;;;;29.85;4.80;;;;;;;-144.73;100.00;54740.22;5037059;28;20048;-76
2023/12/26 10:47:50;;;;;;;22.80;4.22;;;;;;;-144.73;100.00;54699.16;5027423;28;20034;-79
2023/12/26 10:50:32;;;;;;;26.17;4.22;;;;;;;-144.73;100.00;54754.59;5022826;28;20032;-80
2023/12/26 10:53:08;;;;;;;23.92;3.58;;;;;;;-144.73;100.00;54695.06;5031884;28;20039;-77
2023/12/26 10:55:45;;;;;;;22.38;3.75;;;;;;;-144.73;100.00;54682.75;5034817;28;20021;-76
2023/12/26 10:58:13;;;;;;;31.08;4.20;;;;;;;-144.73;100.00;54695.06;5129429;22;20042;-75
2023/12/26 11:03:14;;;;;;;28.85;3.95;;;;;;;-144.73;100.00;54703.28;5307644;22;20567;-75
2023/12/26 11:05:40;;;;;;;32.30;5.63;;;;;;;-144.73;100.00;54690.97;5017083;28;20033;-75
2023/12/26 11:08:05;;;;;;;36.75;4.45;;;;;;;-144.73;100.00;54707.38;5034216;28;20072;-76